KEVB/EVB METAR and TAF weather

Enter ICAO airport designator
Station Type Date Time Source
KEVB METAR 2020/02/27 13:47 UTC NOAA

KEVB 271347Z 33012G20KT 10SM FEW070 10/02 A3018


Station Type Date Time Source
KEVB Decoded METAR 2020/02/27 13:47 UTC NOAA

New Smyrna Beach, New Smyrna Beach Municipal Airport, FL, United States (KEVB) 29-03-20N 080-56-54W
Feb 27, 2020 - 08:47 AM EST / 2020.02.27 1347 UTC
Wind: from the NNW (330 degrees) at 14 MPH (12 KT) gusting to 23 MPH (20 KT):0
Visibility: 10 mile(s):0
Sky conditions: mostly clear
Temperature: 50 F (10 C)
Dew Point: 35 F (2 C)
Relative Humidity: 57%
Pressure (altimeter): 30.18 in. Hg (1022 hPa)
ob: KEVB 271347Z 33012G20KT 10SM FEW070 10/02 A3018
cycle: 14

Station Type Date Time Source
KEVB TAF UTC NOAA

Error!

Example: see airport list